September 28, 2022

Time Code Weather Temp. Visibility Ceiling Wind METAR/SPECI
08:20
V
8 °C 10 km+ 3,900 ft 300° 300° 3 kt METAR EDDS 280620Z AUTO 30003KT 270V330 9999 -RA SCT012 BKN039 OVC045 08/07 Q0997 NOSIG
07:50
V
8 °C 10 km+ 3,600 ft 300° 300° 4 kt METAR EDDS 280550Z AUTO 30004KT 9999 -RA FEW028 BKN036 08/07 Q0996 RERA NOSIG
07:20
M
8 °C 10 km+ 2,600 ft 290° 290° 7 kt METAR EDDS 280520Z AUTO 29007KT 9999 -RA BKN026 BKN030 08/07 Q0996 RERA NOSIG
06:50
M
9 °C 7 km 2,300 ft 290° 290° 9 kt METAR EDDS 280450Z AUTO 29009KT 7000 -RA FEW010 BKN023 OVC049 09/07 Q0996 RERA TEMPO RA
06:20
V
9 °C 10 km+ - 210° 210° 7 kt METAR EDDS 280420Z AUTO 21007KT 140V280 9999 -RA FEW027 SCT046 09/08 Q0996 TEMPO RA
05:50
V
9 °C 10 km+ - 220° 220° 7 kt METAR EDDS 280350Z AUTO 22007KT 170V280 9999 -RA FEW026 09/08 Q0996
05:20
V
9 °C 10 km+ - Var Var 6 kt METAR EDDS 280320Z AUTO VRB06KT 9999 -RA FEW028 09/08 Q0996
04:50
V
9 °C 10 km+ - 190° 190° 7 kt METAR EDDS 280250Z AUTO 19007KT 140V250 9999 -RA FEW036 09/08 Q0996
04:20
V
9 °C 10 km+ - 190° 190° 7 kt METAR EDDS 280220Z AUTO 19007KT 150V260 9999 SCT035 09/07 Q0997
03:50
V
9 °C 10 km+ 3,800 ft 190° 190° 7 kt METAR EDDS 280150Z AUTO 19007KT 160V260 9999 -RADZ SCT027 BKN038 09/07 Q0997
03:20
V
9 °C 10 km+ 4,800 ft 200° 200° 7 kt METAR EDDS 280120Z AUTO 20007KT 160V240 9999 -RADZ SCT030 BKN048 09/07 Q0998
02:50
V
8 °C 10 km+ - 180° 180° 4 kt METAR EDDS 280050Z AUTO 18004KT 100V230 9999 -DZ SCT036 08/07 Q0998
02:20
V
8 °C 10 km+ - 100° 100° 4 kt METAR EDDS 280020Z AUTO 10004KT 060V120 9999 -RA FEW034 08/07 Q0999
01:50
M
8 °C 10 km+ 2,700 ft Var Var 2 kt METAR EDDS 272350Z AUTO VRB02KT 9999 BKN027 OVC034 08/07 Q1000
01:20
V
8 °C 10 km+ 4,200 ft 110° 110° 3 kt METAR EDDS 272320Z AUTO 11003KT 060V160 9999 SCT027 BKN042 08/06 Q1000
00:50
V
8 °C 10 km+ - Var Var 2 kt METAR EDDS 272250Z AUTO VRB02KT 9999 -RA FEW030 08/06 Q1001
00:20
V
8 °C 10 km+ 4,000 ft 210° 210° 4 kt METAR EDDS 272220Z AUTO 21004KT 110V280 9999 -RA BKN040 08/06 Q1001

September 27, 2022

Time Code Weather Temp. Visibility Ceiling Wind METAR/SPECI
23:50
V
8 °C 10 km+ - 190° 190° 3 kt METAR EDDS 272150Z AUTO 19003KT 130V240 CAVOK 08/06 Q1002
23:20
V
7 °C 10 km+ - 200° 200° 5 kt METAR EDDS 272120Z AUTO 20005KT 160V230 CAVOK 07/06 Q1002
22:50
V
7 °C 10 km+ - 180° 180° 6 kt METAR EDDS 272050Z AUTO 18006KT 150V220 9999 FEW045 07/06 Q1002
22:20
V
7 °C 10 km+ - 190° 190° 5 kt METAR EDDS 272020Z AUTO 19005KT 150V220 CAVOK 07/05 Q1002
21:50
V
7 °C 10 km+ - 210° 210° 4 kt METAR EDDS 271950Z AUTO 21004KT 160V270 CAVOK 07/05 Q1003 NOSIG
21:20
V
8 °C 10 km+ - 230° 230° 6 kt METAR EDDS 271920Z AUTO 23006KT 190V280 9999 FEW042 08/05 Q1003
20:50
V
8 °C 10 km+ 4,300 ft 230° 230° 7 kt METAR EDDS 271850Z AUTO 23007KT 180V280 9999 -RA FEW034 BKN043 08/06 Q1002 NOSIG
20:20
V
8 °C 10 km+ 4,500 ft 230° 230° 7 kt METAR EDDS 271820Z AUTO 23007KT 190V280 9999 -RADZ FEW029 BKN045 08/06 Q1002 NOSIG
19:50
V
9 °C 10 km+ - 230° 230° 9 kt METAR EDDS 271750Z AUTO 23009KT 180V280 9999 -RA FEW035 09/05 Q1002 TEMPO RA
19:20
V
10 °C 10 km+ - 240° 240° 11 - 22 kt METAR EDDS 271720Z AUTO 24011G22KT 200V270 CAVOK 10/04 Q1002 NOSIG
18:50
V
10 °C 10 km+ - 230° 230° 10 kt METAR EDDS 271650Z AUTO 23010KT 190V270 9999 FEW038 10/04 Q1002 NOSIG
18:20
V
11 °C 10 km+ - 230° 230° 9 kt METAR EDDS 271620Z AUTO 23009KT 180V260 9999 SCT039 11/04 Q1002 NOSIG
17:50
V
11 °C 10 km+ - 230° 230° 11 - 23 kt METAR EDDS 271550Z AUTO 23011G23KT 170V290 9999 SCT038 11/05 Q1002 NOSIG
17:20
V
11 °C 10 km+ - 240° 240° 12 kt METAR EDDS 271520Z AUTO 24012KT 190V280 9999 FEW033 SCT045 11/05 Q1001 NOSIG
16:50
V
11 °C 10 km+ 3,900 ft 240° 240° 14 - 25 kt METAR EDDS 271450Z AUTO 24014G25KT 9999 BKN039 11/05 Q1001 RESHRA NOSIG
16:20
V
11 °C 10 km+ - 240° 240° 13 kt METAR EDDS 271420Z AUTO 24013KT 200V290 9999 SHRA SCT027 FEW///CB 11/06 Q1001 TEMPO NSW
15:50
M
11 °C 10 km+ 2,100 ft 230° 230° 10 kt METAR EDDS 271350Z AUTO 23010KT 170V270 9999 BKN021 BKN037 11/07 Q1001 NOSIG
15:20
V
11 °C 10 km+ 4,000 ft 230° 230° 8 kt METAR EDDS 271320Z AUTO 23008KT 180V260 9999 SCT019 BKN040 11/07 Q1001 NOSIG
14:50
V
11 °C 10 km+ - 260° 260° 10 kt METAR EDDS 271250Z AUTO 26010KT 9999 -RA FEW022 11/08 Q1001 RERA TEMPO SHRA
14:20
V
10 °C 10 km+ 3,500 ft 250° 250° 11 kt METAR EDDS 271220Z AUTO 25011KT 220V280 9999 RA FEW026 BKN035 10/07 Q1001 TEMPO SHRA
13:50
V
12 °C 10 km+ - 230° 230° 12 kt METAR EDDS 271150Z AUTO 23012KT 170V260 9999 -RA SCT032 12/06 Q1001 TEMPO SHRA
13:20
V
12 °C 10 km+ - 240° 240° 9 kt METAR EDDS 271120Z AUTO 24009KT 180V270 9999 FEW029 12/06 Q1001 TEMPO 24015G25KT
12:50
V
11 °C 10 km+ - 230° 230° 10 kt METAR EDDS 271050Z AUTO 23010KT 170V300 9999 SCT027 11/06 Q1002 TEMPO 24015G25KT
12:20
V
12 °C 10 km+ - 240° 240° 11 kt METAR EDDS 271020Z AUTO 24011KT 180V290 9999 SCT027 12/06 Q1002 NOSIG
11:50
V
11 °C 10 km+ - 250° 250° 10 - 20 kt METAR EDDS 270950Z AUTO 25010G20KT 200V280 9999 FEW023 11/06 Q1002 NOSIG
11:20
V
10 °C 10 km+ - 250° 250° 10 kt METAR EDDS 270920Z AUTO 25010KT 220V280 9999 -SHRA FEW029 FEW///CB 10/06 Q1002 RESHRA NOSIG
10:50
M
10 °C 10 km+ 2,200 ft 250° 250° 11 kt METAR EDDS 270850Z AUTO 25011KT 210V270 9999 -SHRA BKN022 BKN029 FEW///TCU 10/06 Q1002 NOSIG
10:20
V
10 °C 10 km+ - 250° 250° 14 kt METAR EDDS 270820Z AUTO 25014KT 9999 SCT024 10/06 Q1002 NOSIG
09:50
M
9 °C 10 km+ 2,700 ft 250° 250° 10 kt METAR EDDS 270750Z AUTO 25010KT 230V290 9999 BKN027 09/06 Q1001 NOSIG
09:20
V
9 °C 10 km+ - 250° 250° 10 kt METAR EDDS 270720Z AUTO 25010KT 9999 FEW024 09/06 Q1001 NOSIG
08:50
M
9 °C 10 km+ 2,400 ft 250° 250° 11 kt METAR EDDS 270650Z AUTO 25011KT 210V280 9999 SCT019 BKN024 09/06 Q1001 NOSIG
08:20
M
9 °C 10 km+ 2,400 ft 230° 230° 9 kt METAR EDDS 270620Z AUTO 23009KT 180V270 9999 -RADZ BKN024 09/07 Q1001 NOSIG
07:50
M
9 °C 10 km+ 2,700 ft 230° 230° 6 kt METAR EDDS 270550Z AUTO 23006KT 160V270 9999 -RADZ SCT022 BKN027 OVC044 09/06 Q1000 NOSIG
07:20
M
9 °C 10 km+ 2,700 ft 230° 230° 7 kt METAR EDDS 270520Z AUTO 23007KT 140V290 9999 BKN027 BKN038 09/06 Q1000 NOSIG
06:50
M
9 °C 10 km+ 2,100 ft 240° 240° 6 kt METAR EDDS 270450Z AUTO 24006KT 200V270 9999 BKN021 BKN028 BKN035 09/07 Q0999 NOSIG
06:20
M
9 °C 10 km+ 2,900 ft 230° 230° 4 kt METAR EDDS 270420Z AUTO 23004KT 160V290 9999 SCT022 BKN029 09/07 Q0999 TEMPO RA
05:50
V
9 °C 10 km+ - 240° 240° 8 kt METAR EDDS 270350Z AUTO 24008KT 210V270 9999 SCT026 09/07 Q0999
05:20
V
9 °C 10 km+ - 260° 260° 11 kt METAR EDDS 270320Z AUTO 26011KT 9999 SCT049 09/07 Q0999
04:50
V
9 °C 10 km+ 4,100 ft 240° 240° 9 - 19 kt METAR EDDS 270250Z AUTO 24009G19KT 200V270 9999 -RA SCT019 BKN041 09/08 Q0999 RERA
04:20
V
10 °C 10 km+ 3,200 ft 210° 210° 6 kt METAR EDDS 270220Z AUTO 21006KT 160V270 9999 -RADZ FEW022 BKN032 OVC043 10/08 Q0998
03:50
V
10 °C 10 km+ 3,700 ft 210° 210° 7 kt METAR EDDS 270150Z AUTO 21007KT 150V280 9999 FEW017 SCT027 OVC037 10/08 Q0998
03:20
V
9 °C 10 km+ - 210° 210° 7 kt METAR EDDS 270120Z AUTO 21007KT 140V270 9999 FEW024 09/08 Q0998
02:50
V
9 °C 10 km+ - 210° 210° 6 kt METAR EDDS 270050Z AUTO 21006KT 150V270 9999 -RA FEW030 09/08 Q0998
02:20
V
9 °C 10 km+ - 200° 200° 5 kt METAR EDDS 270020Z AUTO 20005KT 140V290 9999 -RA FEW029 SCT042 09/08 Q0999
01:50
V
10 °C 10 km+ - Var Var 6 kt METAR EDDS 262350Z AUTO VRB06KT 9999 -RA FEW029 10/07 Q0999
01:20
V
10 °C 10 km+ - Var Var 5 kt METAR EDDS 262320Z AUTO VRB05KT 9999 -RA NSC 10/07 Q0999
00:50
V
10 °C 10 km+ - Var Var 8 kt METAR EDDS 262250Z AUTO VRB08KT 9999 -RA NSC 10/07 Q1000
00:20
V
10 °C 10 km+ - 220° 220° 11 kt METAR EDDS 262220Z AUTO 22011KT 170V290 9999 -RA NSC 10/07 Q1000

September 26, 2022

Time Code Weather Temp. Visibility Ceiling Wind METAR/SPECI
23:50
V
11 °C 10 km+ - 230° 230° 12 kt METAR EDDS 262150Z AUTO 23012KT 160V280 9999 -RADZ FEW039 11/06 Q1001
23:20
V
12 °C 10 km+ - 230° 230° 14 - 31 kt METAR EDDS 262120Z AUTO 23014G31KT 180V270 9999 FEW041 12/07 Q1001
22:50
V
12 °C 10 km+ 3,800 ft 230° 230° 12 kt METAR EDDS 262050Z AUTO 23012KT 170V280 9999 -RA BKN038 12/07 Q1001
22:20
V
13 °C 10 km+ - 200° 200° 5 kt METAR EDDS 262020Z AUTO 20005KT 140V290 CAVOK 13/06 Q1001
21:50
V
12 °C 10 km+ - 190° 190° 6 kt METAR EDDS 261950Z AUTO 19006KT 150V230 9999 -RA FEW048 12/06 Q1002 TEMPO RA
21:20
V
12 °C 10 km+ - 180° 180° 5 kt METAR EDDS 261920Z AUTO 18005KT 130V260 9999 FEW046 12/06 Q1002 NOSIG
20:50
V
12 °C 10 km+ - Var Var 2 kt METAR EDDS 261850Z AUTO VRB02KT CAVOK 12/07 Q1002 NOSIG
20:20
V
12 °C 10 km+ - Var Var 2 kt METAR EDDS 261820Z AUTO VRB02KT CAVOK 12/07 Q1002 NOSIG
19:50
V
12 °C 10 km+ - 180° 180° 3 kt METAR EDDS 261750Z AUTO 18003KT 110V250 CAVOK 12/07 Q1003 NOSIG
19:20
V
12 °C 10 km+ - 200° 200° 6 kt METAR EDDS 261720Z AUTO 20006KT 120V240 CAVOK 12/07 Q1003 NOSIG
18:50
V
12 °C 10 km+ - 200° 200° 5 kt METAR EDDS 261650Z AUTO 20005KT 120V270 9999 -RA NSC 12/07 Q1004 NOSIG
18:20
V
13 °C 10 km+ - 220° 220° 8 kt METAR EDDS 261620Z AUTO 22008KT 150V280 CAVOK 13/06 Q1004 NOSIG
17:50
V
13 °C 10 km+ - 220° 220° 7 kt METAR EDDS 261550Z AUTO 22007KT 160V300 CAVOK 13/06 Q1004 NOSIG
17:20
V
13 °C 10 km+ - 240° 240° 9 kt METAR EDDS 261520Z AUTO 24009KT 130V290 9999 -RA NSC 13/06 Q1005 NOSIG
16:50
V
14 °C 10 km+ - 240° 240° 9 kt METAR EDDS 261450Z AUTO 24009KT 170V280 CAVOK 14/06 Q1005 TEMPO 24015G25KT
16:20
V
14 °C 10 km+ - 240° 240° 13 - 23 kt METAR EDDS 261420Z AUTO 24013G23KT 170V280 CAVOK 14/07 Q1005 NOSIG
15:50
V
14 °C 10 km+ - 220° 220° 7 kt METAR EDDS 261350Z AUTO 22007KT 130V300 CAVOK 14/07 Q1005 RESHRA NOSIG
15:20
V
13 °C 10 km+ - 230° 230° 14 - 26 kt METAR EDDS 261320Z AUTO 23014G26KT 180V290 9999 -SHRA FEW044 FEW///CB 13/06 Q1006 TEMPO 24015G25KT SHRA
14:50
V
15 °C 10 km+ - 240° 240° 10 kt METAR EDDS 261250Z AUTO 24010KT 160V300 9999 FEW042 15/06 Q1006 TEMPO 23015G25KT SHRA
14:20
V
15 °C 10 km+ - 230° 230° 7 kt METAR EDDS 261220Z AUTO 23007KT 110V280 9999 -SHRA FEW049 FEW///CB 15/07 Q1006 TEMPO 23015G25KT SHRA
13:50
V
13 °C 10 km+ - 200° 200° 7 kt METAR EDDS 261150Z AUTO 20007KT 130V270 9999 -SHRA FEW036 FEW///CB 13/07 Q1007 RESHRA TEMPO SHRA
13:20
V
15 °C 10 km+ - 190° 190° 9 kt METAR EDDS 261120Z AUTO 19009KT 120V260 9999 VCSH FEW039 FEW///CB 15/06 Q1007 TEMPO SHRA
12:50
V
15 °C 10 km+ - 210° 210° 6 kt METAR EDDS 261050Z AUTO 21006KT 150V280 9999 FEW033 15/07 Q1007 NOSIG
12:20
V
15 °C 10 km+ - 220° 220° 7 kt METAR EDDS 261020Z AUTO 22007KT 120V280 9999 FEW024 15/08 Q1008 NOSIG
11:50
V
14 °C 10 km+ - Var Var 7 kt METAR EDDS 260950Z AUTO VRB07KT 9999 SCT022 SCT027 14/08 Q1008 BECMG 22005KT
11:20
V
13 °C 10 km+ - Var Var 5 kt METAR EDDS 260920Z AUTO VRB05KT 9999 FEW018 13/09 Q1008 BECMG 22005KT
10:50
V
13 °C 10 km+ - 220° 220° 4 kt METAR EDDS 260850Z AUTO 22004KT 150V290 CAVOK 13/09 Q1008 NOSIG
10:20
V
11 °C 10 km+ - 200° 200° 4 kt METAR EDDS 260820Z AUTO 20004KT 150V270 CAVOK 11/08 Q1008 NOSIG
09:50
V
11 °C 10 km+ - 200° 200° 5 kt METAR EDDS 260750Z AUTO 20005KT 150V260 CAVOK 11/09 Q1009 NOSIG
09:20
V
11 °C 10 km+ - 200° 200° 5 kt METAR EDDS 260720Z AUTO 20005KT 150V250 CAVOK 11/09 Q1009 NOSIG
08:50
V
10 °C 10 km+ - Var Var 3 kt METAR EDDS 260650Z AUTO VRB03KT CAVOK 10/08 Q1009 NOSIG
08:20
V
10 °C 10 km+ - Var Var 1 kt METAR EDDS 260620Z AUTO VRB01KT CAVOK 10/08 Q1009 NOSIG
07:50
V
9 °C 10 km+ - Var Var 2 kt METAR EDDS 260550Z AUTO VRB02KT CAVOK 09/08 Q1009 NOSIG
07:20
V
9 °C 10 km+ - Var Var 2 kt METAR EDDS 260520Z AUTO VRB02KT CAVOK 09/08 Q1010 TEMPO 4000 BR
Older data

We and third parties follow your internet behavior on our website with cookies. If you continue, we assume you agree with our cookie policy. Learn more